createdAt,value
2022-12-28T00:01:26.959Z,2.20
2022-12-28T00:03:54.815Z,2.10
2022-12-28T00:06:24.727Z,2.10
2022-12-28T00:08:57.127Z,2.10
2022-12-28T00:11:26.617Z,1.90
2022-12-28T00:13:59.106Z,1.90
2022-12-28T00:16:34.712Z,1.80
2022-12-28T00:19:07.584Z,1.80
2022-12-28T00:21:35.292Z,1.80
2022-12-28T00:24:02.968Z,1.70
2022-12-28T00:26:33.077Z,1.70
2022-12-28T00:29:04.896Z,1.60
2022-12-28T00:31:36.123Z,1.50
2022-12-28T00:34:04.492Z,1.50
2022-12-28T00:37:10.477Z,1.40
2022-12-28T00:39:21.058Z,1.40
2022-12-28T00:41:48.604Z,1.30
2022-12-28T00:44:15.862Z,1.30
2022-12-28T00:46:43.573Z,1.30
2022-12-28T00:49:10.685Z,1.30
2022-12-28T00:51:37.927Z,1.30
2022-12-28T00:54:05.239Z,1.30
2022-12-28T00:56:32.649Z,1.20
2022-12-28T00:59:00.418Z,1.20
2022-12-28T01:01:29.612Z,1.20
2022-12-28T01:03:58.362Z,1.20
2022-12-28T01:06:25.960Z,1.10
2022-12-28T01:08:53.267Z,1.10
2022-12-28T01:11:29.335Z,1.00
2022-12-28T01:13:59.095Z,1.00
2022-12-28T01:16:32.330Z,0.90
2022-12-28T01:19:02.555Z,0.90
2022-12-28T01:21:32.502Z,0.90
2022-12-28T01:24:03.282Z,0.90
2022-12-28T01:26:30.939Z,0.90
2022-12-28T01:28:59.160Z,0.80
2022-12-28T01:31:27.162Z,0.80
2022-12-28T01:33:55.796Z,0.70
2022-12-28T01:36:25.868Z,0.70
2022-12-28T01:38:55.310Z,0.70
2022-12-28T01:41:23.522Z,0.70
2022-12-28T01:43:53.843Z,0.70
2022-12-28T01:46:41.627Z,0.70
2022-12-28T01:49:32.357Z,0.60
2022-12-28T01:52:24.134Z,0.60
2022-12-28T01:55:04.238Z,0.60
2022-12-28T01:57:36.376Z,0.50
2022-12-28T02:00:09.433Z,0.60
2022-12-28T02:02:37.300Z,0.60
2022-12-28T02:05:05.823Z,0.60
2022-12-28T02:07:55.971Z,0.60
2022-12-28T02:10:41.336Z,0.70
2022-12-28T02:13:12.254Z,0.60
2022-12-28T02:15:39.524Z,0.60
2022-12-28T02:18:07.028Z,0.60
2022-12-28T02:21:06.413Z,0.60
2022-12-28T02:23:52.386Z,0.60
2022-12-28T02:26:43.987Z,0.50
2022-12-28T02:29:49.345Z,0.50
2022-12-28T02:32:25.681Z,0.40
2022-12-28T02:35:13.121Z,0.30
2022-12-28T02:37:59.711Z,0.30
2022-12-28T02:40:48.780Z,0.20
2022-12-28T02:43:21.070Z,0.20
2022-12-28T02:46:07.740Z,0.20
2022-12-28T02:49:05.689Z,0.20
2022-12-28T02:51:56.051Z,0.20
2022-12-28T02:54:55.704Z,0.20
2022-12-28T02:58:07.675Z,0.20
2022-12-28T03:00:44.251Z,0.10
2022-12-28T03:03:32.228Z,0.10
2022-12-28T03:06:30.412Z,0.10
2022-12-28T03:09:20.463Z,0.10
2022-12-28T03:12:15.705Z,0.10
2022-12-28T03:14:50.421Z,0.10
2022-12-28T03:17:40.228Z,0.00
2022-12-28T03:20:33.707Z,0.10
2022-12-28T03:23:22.529Z,0.10
2022-12-28T03:26:10.764Z,0.00
2022-12-28T03:29:00.663Z,0.00
2022-12-28T03:31:29.553Z,0.00
2022-12-28T03:34:07.130Z,0.00
2022-12-28T03:36:48.222Z,0.00
2022-12-28T03:39:36.066Z,0.00
2022-12-28T03:42:38.367Z,-0.10
2022-12-28T03:45:50.239Z,-0.10
2022-12-28T03:48:18.383Z,-0.20
2022-12-28T03:50:48.941Z,-0.30
2022-12-28T03:53:24.598Z,-0.30
2022-12-28T03:55:51.902Z,-0.30
2022-12-28T03:58:21.892Z,-0.20
2022-12-28T04:00:49.111Z,-0.20
2022-12-28T04:03:16.890Z,-0.10
2022-12-28T04:05:47.242Z,-0.20
2022-12-28T04:08:15.969Z,-0.10
2022-12-28T04:10:43.183Z,-0.10
2022-12-28T04:13:10.300Z,-0.20
2022-12-28T04:15:37.578Z,-0.10
2022-12-28T04:18:05.102Z,-0.20
2022-12-28T04:20:32.425Z,-0.20
2022-12-28T04:22:59.544Z,-0.20
2022-12-28T04:25:28.415Z,-0.30
2022-12-28T04:27:55.870Z,-0.20
2022-12-28T04:30:23.163Z,-0.20
2022-12-28T04:32:50.362Z,-0.20
2022-12-28T04:35:17.576Z,-0.20
2022-12-28T04:37:44.831Z,-0.10
2022-12-28T04:40:12.430Z,-0.10
2022-12-28T04:42:40.194Z,-0.10
2022-12-28T04:45:07.900Z,-0.10
2022-12-28T04:47:35.282Z,-0.10
2022-12-28T04:50:02.916Z,-0.10
2022-12-28T04:52:30.148Z,-0.10
2022-12-28T04:54:57.798Z,0.00
2022-12-28T04:57:24.977Z,-0.10
2022-12-28T04:59:52.302Z,-0.20
2022-12-28T05:02:19.957Z,-0.30
2022-12-28T05:04:47.206Z,-0.30
2022-12-28T05:07:14.423Z,-0.20
2022-12-28T05:09:42.527Z,-0.20
2022-12-28T05:12:09.758Z,-0.10
2022-12-28T05:14:37.707Z,-0.10
2022-12-28T05:17:05.584Z,-0.10
2022-12-28T05:19:32.822Z,0.00
2022-12-28T05:21:59.973Z,0.00
2022-12-28T05:24:27.201Z,0.10
2022-12-28T05:26:54.371Z,0.20
2022-12-28T05:29:21.595Z,0.30
2022-12-28T05:31:48.740Z,0.40
2022-12-28T05:34:15.926Z,0.40
2022-12-28T05:36:44.280Z,0.40
2022-12-28T05:39:11.459Z,0.40
2022-12-28T05:41:38.874Z,0.40
2022-12-28T05:44:06.432Z,0.40
2022-12-28T05:46:35.553Z,0.40
2022-12-28T05:49:02.839Z,0.40
2022-12-28T05:51:32.786Z,0.40
2022-12-28T05:54:01.897Z,0.50
2022-12-28T05:56:30.907Z,0.40
2022-12-28T05:59:01.016Z,0.40
2022-12-28T06:01:30.952Z,0.40
2022-12-28T06:04:04.343Z,0.30
2022-12-28T06:06:33.590Z,0.30
2022-12-28T06:09:02.046Z,0.30
2022-12-28T06:11:30.399Z,0.30
2022-12-28T06:13:59.448Z,0.30
2022-12-28T06:16:30.611Z,0.30
2022-12-28T06:18:58.391Z,0.30
2022-12-28T06:21:32.596Z,0.30
2022-12-28T06:24:01.079Z,0.30
2022-12-28T06:26:30.884Z,0.30
2022-12-28T06:28:59.192Z,0.30
2022-12-28T06:31:30.389Z,0.30
2022-12-28T06:33:59.316Z,0.30
2022-12-28T06:36:32.431Z,0.30
2022-12-28T06:39:01.367Z,0.20
2022-12-28T06:41:29.260Z,0.20
2022-12-28T06:43:58.604Z,0.20
2022-12-28T06:46:30.454Z,0.20
2022-12-28T06:48:58.571Z,0.20
2022-12-28T06:51:38.873Z,0.20
2022-12-28T06:54:06.850Z,0.30
2022-12-28T06:56:35.360Z,0.20
2022-12-28T06:59:04.052Z,0.20
2022-12-28T07:01:38.051Z,0.30
2022-12-28T07:04:07.409Z,0.30
2022-12-28T07:06:38.292Z,0.30
2022-12-28T07:09:08.215Z,0.30
2022-12-28T07:11:36.012Z,0.30
2022-12-28T07:14:03.629Z,0.30
2022-12-28T07:18:59.543Z,0.50
2022-12-28T07:21:32.316Z,0.60
2022-12-28T07:24:00.043Z,0.60
2022-12-28T07:26:30.579Z,0.60
2022-12-28T07:28:59.721Z,0.60
2022-12-28T07:31:29.737Z,0.70
2022-12-28T07:33:58.712Z,0.70
2022-12-28T07:36:27.142Z,0.80
2022-12-28T07:38:54.484Z,0.90
2022-12-28T07:41:28.117Z,0.90
2022-12-28T07:43:56.125Z,1.00
2022-12-28T07:46:26.508Z,1.10
2022-12-28T07:48:54.659Z,1.10
2022-12-28T07:51:32.020Z,1.10
2022-12-28T07:54:00.194Z,1.10
2022-12-28T07:56:29.765Z,1.10
2022-12-28T07:59:00.375Z,1.10
2022-12-28T08:01:30.118Z,1.10
2022-12-28T08:04:00.107Z,1.10
2022-12-28T08:06:28.953Z,1.10
2022-12-28T08:08:59.636Z,1.20
2022-12-28T08:11:32.314Z,1.20
2022-12-28T08:14:00.366Z,1.30
2022-12-28T08:16:29.514Z,1.40
2022-12-28T08:18:56.921Z,1.50
2022-12-28T08:21:28.738Z,1.60
2022-12-28T08:23:56.455Z,1.60
2022-12-28T08:26:26.750Z,1.70
2022-12-28T08:28:56.429Z,1.60
2022-12-28T08:31:27.551Z,1.60
2022-12-28T08:33:56.589Z,1.60
2022-12-28T08:36:24.248Z,1.70
2022-12-28T08:38:51.986Z,1.60
2022-12-28T08:41:21.980Z,1.70
2022-12-28T08:43:49.971Z,1.70
2022-12-28T08:46:20.118Z,1.70
2022-12-28T08:48:48.469Z,1.70
2022-12-28T08:51:20.400Z,1.70
2022-12-28T08:53:48.326Z,1.80
2022-12-28T08:56:21.906Z,2.00
2022-12-28T08:58:49.993Z,2.00
2022-12-28T09:01:26.026Z,2.10
2022-12-28T09:03:56.013Z,2.20
2022-12-28T09:06:31.355Z,2.30
2022-12-28T09:09:06.286Z,2.30
2022-12-28T09:11:38.862Z,2.30
2022-12-28T09:14:08.642Z,2.30
2022-12-28T09:16:37.727Z,2.40
2022-12-28T09:19:06.862Z,2.40
2022-12-28T09:21:38.659Z,2.40
2022-12-28T09:24:06.790Z,2.50
2022-12-28T09:26:37.360Z,2.70
2022-12-28T09:29:08.831Z,3.00
2022-12-28T09:31:37.527Z,3.10
2022-12-28T09:36:59.792Z,4.50
2022-12-28T09:39:27.402Z,6.20
2022-12-28T09:42:06.819Z,7.50
2022-12-28T09:44:45.962Z,7.90
2022-12-28T09:47:39.148Z,7.50
2022-12-28T09:50:24.586Z,6.70
2022-12-28T09:52:57.652Z,6.00
2022-12-28T09:55:25.665Z,5.50
2022-12-28T09:57:57.248Z,5.00
2022-12-28T10:00:51.465Z,4.80
2022-12-28T10:03:23.243Z,4.60
2022-12-28T10:05:52.289Z,4.40
2022-12-28T10:08:22.585Z,4.30
2022-12-28T10:10:51.433Z,4.30
2022-12-28T10:16:19.212Z,4.30
2022-12-28T10:18:47.436Z,4.30
2022-12-28T10:21:18.861Z,4.30
2022-12-28T10:24:29.325Z,4.30
2022-12-28T10:26:37.810Z,4.50
2022-12-28T10:29:04.962Z,4.60
2022-12-28T10:31:37.698Z,4.60
2022-12-28T10:34:23.467Z,4.70
2022-12-28T10:36:52.873Z,4.70
2022-12-28T10:39:27.103Z,4.80
2022-12-28T10:41:56.276Z,4.90
2022-12-28T10:44:39.386Z,4.90
2022-12-28T10:47:19.163Z,4.90
2022-12-28T10:52:39.735Z,5.10
2022-12-28T10:55:31.826Z,5.20
2022-12-28T10:58:33.711Z,5.20
2022-12-28T11:01:12.928Z,5.20
2022-12-28T11:04:07.954Z,5.20
2022-12-28T11:06:50.805Z,5.20
2022-12-28T11:09:26.832Z,5.20
2022-12-28T11:11:56.599Z,5.10
2022-12-28T11:14:37.563Z,5.10
2022-12-28T11:17:24.140Z,5.00
2022-12-28T11:20:16.331Z,4.90
2022-12-28T11:22:45.615Z,4.90
2022-12-28T11:25:17.617Z,4.80
2022-12-28T11:27:46.884Z,4.70
2022-12-28T11:30:19.219Z,4.70
2022-12-28T11:33:02.758Z,4.60
2022-12-28T11:35:32.657Z,4.60
2022-12-28T11:38:02.747Z,4.60
2022-12-28T11:40:45.427Z,4.60
2022-12-28T11:43:31.530Z,4.50
2022-12-28T11:46:00.661Z,4.60
2022-12-28T11:49:00.554Z,4.60
2022-12-28T11:51:36.284Z,4.60
2022-12-28T11:54:06.315Z,4.60
2022-12-28T11:56:45.241Z,4.60
2022-12-28T11:59:35.756Z,4.60
2022-12-28T12:02:28.969Z,4.70
2022-12-28T12:04:56.333Z,4.70
2022-12-28T12:07:44.872Z,4.80
2022-12-28T12:10:29.729Z,4.80
2022-12-28T12:12:57.792Z,4.90
2022-12-28T12:15:48.452Z,5.00
2022-12-28T12:18:24.170Z,5.00
2022-12-28T12:21:01.280Z,5.10
2022-12-28T12:23:46.307Z,5.30
2022-12-28T12:26:21.569Z,5.50
2022-12-28T12:28:53.730Z,5.60
2022-12-28T12:31:35.940Z,5.50
2022-12-28T12:34:41.160Z,5.50
2022-12-28T12:37:32.572Z,5.50
2022-12-28T12:40:26.895Z,5.50
2022-12-28T12:43:29.525Z,5.50
2022-12-28T12:46:21.042Z,5.40
2022-12-28T12:49:06.982Z,5.40
2022-12-28T12:51:58.807Z,5.50
2022-12-28T12:55:25.114Z,5.40
2022-12-28T12:57:54.988Z,5.30
2022-12-28T13:00:24.521Z,5.30
2022-12-28T13:03:21.846Z,5.30
2022-12-28T13:05:55.529Z,5.90
2022-12-28T13:08:47.607Z,6.50
2022-12-28T13:11:16.459Z,7.20
2022-12-28T13:13:47.875Z,7.40
2022-12-28T13:16:19.457Z,7.00
2022-12-28T13:19:01.945Z,6.80
2022-12-28T13:21:50.487Z,7.10
2022-12-28T13:24:29.514Z,7.80
2022-12-28T13:26:59.439Z,8.60
2022-12-28T13:29:28.886Z,9.10
2022-12-28T13:31:56.423Z,9.40
2022-12-28T13:34:29.645Z,9.60
2022-12-28T13:36:59.904Z,9.50
2022-12-28T13:39:36.745Z,9.30
2022-12-28T13:42:16.391Z,9.10
2022-12-28T13:45:09.744Z,8.80
2022-12-28T13:47:48.217Z,8.40
2022-12-28T13:50:20.096Z,8.10
2022-12-28T13:53:12.044Z,8.10
2022-12-28T13:55:47.498Z,8.20
2022-12-28T13:58:19.142Z,8.10
2022-12-28T14:00:48.995Z,7.90
2022-12-28T14:03:18.563Z,7.80
2022-12-28T14:05:55.300Z,7.50
2022-12-28T14:08:23.753Z,7.20
2022-12-28T14:10:52.040Z,7.00
2022-12-28T14:13:20.688Z,6.90
2022-12-28T14:15:48.662Z,6.80
2022-12-28T14:18:18.090Z,6.80
2022-12-28T14:20:56.829Z,6.70
2022-12-28T14:23:28.516Z,6.70
2022-12-28T14:26:00.429Z,6.60
2022-12-28T14:28:50.265Z,6.50
2022-12-28T14:31:23.629Z,6.50
2022-12-28T14:33:58.831Z,6.50
2022-12-28T14:36:42.131Z,6.40
2022-12-28T14:39:23.236Z,6.40
2022-12-28T14:41:50.557Z,6.30
2022-12-28T14:44:29.203Z,6.30
2022-12-28T14:46:58.927Z,6.30
2022-12-28T14:49:29.067Z,6.30
2022-12-28T14:52:08.493Z,6.20
2022-12-28T14:54:50.251Z,6.10
2022-12-28T14:57:31.260Z,6.10
2022-12-28T15:00:21.231Z,6.00
2022-12-28T15:02:48.793Z,5.90
2022-12-28T15:05:34.144Z,5.90
2022-12-28T15:08:02.021Z,5.80
2022-12-28T15:10:29.438Z,5.70
2022-12-28T15:12:56.686Z,5.60
2022-12-28T15:15:24.002Z,5.50
2022-12-28T15:17:54.334Z,5.40
2022-12-28T15:20:22.398Z,5.30
2022-12-28T15:22:49.921Z,5.20
2022-12-28T15:25:17.341Z,5.10
2022-12-28T15:27:44.714Z,5.00
2022-12-28T15:30:18.301Z,4.90
2022-12-28T15:32:48.096Z,4.80
2022-12-28T15:35:15.690Z,4.70
2022-12-28T15:37:43.338Z,4.60
2022-12-28T15:40:11.348Z,4.60
2022-12-28T15:42:40.839Z,4.50
2022-12-28T15:45:09.308Z,4.50
2022-12-28T15:47:36.674Z,4.40
2022-12-28T15:50:04.993Z,4.40
2022-12-28T15:52:32.724Z,4.30
2022-12-28T15:54:59.967Z,4.30
2022-12-28T15:57:27.510Z,4.20
2022-12-28T15:59:55.917Z,4.20
2022-12-28T16:02:24.229Z,4.10
2022-12-28T16:04:51.625Z,4.10
2022-12-28T16:07:19.468Z,4.10
2022-12-28T16:09:48.116Z,4.10
2022-12-28T16:12:18.585Z,4.00
2022-12-28T16:14:47.369Z,4.00
2022-12-28T16:17:15.323Z,4.00
2022-12-28T16:19:43.486Z,3.90
2022-12-28T16:22:10.769Z,3.90
2022-12-28T16:24:38.020Z,3.90
2022-12-28T16:27:05.291Z,3.80
2022-12-28T16:29:32.738Z,3.80
2022-12-28T16:32:01.628Z,3.70
2022-12-28T16:34:29.998Z,3.70
2022-12-28T16:36:59.678Z,3.70
2022-12-28T16:39:29.947Z,3.60
2022-12-28T16:42:00.713Z,3.60
2022-12-28T16:44:29.717Z,3.50
2022-12-28T16:47:00.199Z,3.60
2022-12-28T16:49:28.343Z,3.50
2022-12-28T16:51:56.215Z,3.50
2022-12-28T16:54:25.651Z,3.50
2022-12-28T16:56:53.881Z,3.50
2022-12-28T16:59:30.260Z,3.50
2022-12-28T17:01:59.467Z,3.40
2022-12-28T17:04:27.253Z,3.40
2022-12-28T17:06:54.497Z,3.50
2022-12-28T17:09:21.832Z,3.50
2022-12-28T17:11:50.515Z,3.50
2022-12-28T17:14:35.966Z,3.40
2022-12-28T17:17:04.565Z,3.40
2022-12-28T17:19:32.059Z,3.40
2022-12-28T17:21:59.284Z,3.30
2022-12-28T17:24:26.483Z,3.30
2022-12-28T17:26:53.682Z,3.30
2022-12-28T17:29:20.944Z,3.30
2022-12-28T17:31:48.377Z,3.30
2022-12-28T17:34:15.554Z,3.30
2022-12-28T17:36:43.210Z,3.30
2022-12-28T17:39:10.513Z,3.30
2022-12-28T17:41:37.843Z,3.40
2022-12-28T17:44:05.842Z,3.40
2022-12-28T17:46:33.559Z,3.40
2022-12-28T17:49:00.931Z,3.40
2022-12-28T17:51:29.329Z,3.30
2022-12-28T17:53:57.652Z,3.30
2022-12-28T17:56:25.530Z,3.30
2022-12-28T17:58:57.819Z,3.40
2022-12-28T18:01:26.067Z,3.40
2022-12-28T18:03:53.734Z,3.50
2022-12-28T18:06:21.277Z,3.50
2022-12-28T18:08:48.554Z,3.50
2022-12-28T18:11:15.899Z,3.50
2022-12-28T18:13:46.027Z,3.50
2022-12-28T18:16:16.505Z,3.50
2022-12-28T18:18:44.172Z,3.60
2022-12-28T18:21:19.410Z,3.60
2022-12-28T18:23:50.325Z,3.60
2022-12-28T18:26:23.213Z,3.60
2022-12-28T18:28:50.507Z,3.60
2022-12-28T18:31:18.107Z,3.50
2022-12-28T18:33:45.452Z,3.60
2022-12-28T18:36:17.857Z,3.60
2022-12-28T18:38:47.136Z,3.60
2022-12-28T18:41:17.186Z,3.50
2022-12-28T18:43:44.790Z,3.60
2022-12-28T18:46:12.238Z,3.60
2022-12-28T18:48:41.237Z,3.60
2022-12-28T18:51:12.377Z,3.70
2022-12-28T18:53:40.653Z,3.60
2022-12-28T18:56:10.782Z,3.70
2022-12-28T18:58:40.095Z,3.70
2022-12-28T19:01:20.475Z,3.70
2022-12-28T19:03:58.991Z,3.70
2022-12-28T19:06:26.492Z,3.80
2022-12-28T19:08:53.717Z,3.80
2022-12-28T19:11:21.167Z,3.80
2022-12-28T19:13:48.675Z,3.70
2022-12-28T19:16:21.488Z,3.70
2022-12-28T19:18:50.403Z,3.70
2022-12-28T19:21:41.524Z,3.70
2022-12-28T19:24:19.630Z,3.70
2022-12-28T19:26:47.442Z,3.70
2022-12-28T19:29:16.402Z,3.70
2022-12-28T19:31:44.328Z,3.70
2022-12-28T19:34:11.857Z,3.70
2022-12-28T19:36:39.465Z,3.70
2022-12-28T19:39:06.634Z,3.60
2022-12-28T19:41:34.247Z,3.70
2022-12-28T19:44:01.748Z,3.60
2022-12-28T19:46:32.443Z,3.50
2022-12-28T19:49:04.863Z,3.50
2022-12-28T19:51:33.439Z,3.50
2022-12-28T19:54:01.775Z,3.50
2022-12-28T19:56:29.438Z,3.50
2022-12-28T19:59:05.119Z,3.50
2022-12-28T20:01:35.258Z,3.50
2022-12-28T20:04:08.786Z,3.50
2022-12-28T20:06:40.720Z,3.50
2022-12-28T20:09:07.893Z,3.50
2022-12-28T20:11:35.914Z,3.70
2022-12-28T20:14:03.875Z,3.70
2022-12-28T20:16:33.996Z,3.80
2022-12-28T20:19:02.110Z,3.80
2022-12-28T20:21:29.656Z,3.80
2022-12-28T20:23:56.917Z,4.00
2022-12-28T20:26:29.192Z,4.00
2022-12-28T20:28:58.242Z,4.10
2022-12-28T20:31:26.257Z,4.10
2022-12-28T20:33:53.836Z,4.10
2022-12-28T20:36:24.238Z,4.10
2022-12-28T20:38:55.337Z,4.20
2022-12-28T20:41:44.966Z,4.20
2022-12-28T20:44:14.807Z,4.30
2022-12-28T20:46:44.358Z,4.40
2022-12-28T20:49:11.854Z,4.40
2022-12-28T20:51:39.554Z,4.50
2022-12-28T20:54:06.963Z,4.50
2022-12-28T20:56:38.684Z,4.40
2022-12-28T20:59:07.188Z,4.40
2022-12-28T21:01:35.909Z,4.40
2022-12-28T21:04:03.942Z,4.30
2022-12-28T21:06:31.293Z,4.30
2022-12-28T21:08:58.951Z,4.30
2022-12-28T21:11:26.281Z,4.20
2022-12-28T21:13:53.465Z,4.20
2022-12-28T21:16:20.684Z,4.20
2022-12-28T21:18:50.664Z,4.20
2022-12-28T21:21:20.143Z,4.20
2022-12-28T21:23:47.375Z,4.20
2022-12-28T21:26:17.000Z,4.30
2022-12-28T21:28:44.729Z,4.30
2022-12-28T21:31:12.612Z,4.30
2022-12-28T21:33:41.050Z,4.30
2022-12-28T21:36:15.061Z,4.30
2022-12-28T21:38:44.194Z,4.20
2022-12-28T21:41:17.452Z,4.10
2022-12-28T21:43:44.956Z,4.10
2022-12-28T21:46:14.714Z,4.00
2022-12-28T21:48:42.852Z,4.00
2022-12-28T21:51:33.361Z,3.90
2022-12-28T21:54:08.520Z,3.90
2022-12-28T21:56:36.958Z,3.90
2022-12-28T21:59:04.662Z,3.90
2022-12-28T22:01:50.831Z,3.80
2022-12-28T22:04:39.936Z,3.80
2022-12-28T22:07:09.700Z,3.80
2022-12-28T22:09:55.954Z,3.80
2022-12-28T22:12:40.306Z,3.70
2022-12-28T22:15:40.192Z,3.70
2022-12-28T22:18:37.119Z,3.60
2022-12-28T22:21:06.760Z,3.50
2022-12-28T22:23:35.090Z,3.50
2022-12-28T22:26:02.738Z,3.50
2022-12-28T22:28:29.899Z,3.50
2022-12-28T22:30:57.293Z,3.50
2022-12-28T22:33:24.542Z,3.60
2022-12-28T22:35:51.852Z,3.70
2022-12-28T22:38:19.182Z,3.80
2022-12-28T22:40:46.378Z,3.90
2022-12-28T22:43:13.727Z,3.90
2022-12-28T22:45:40.977Z,3.90
2022-12-28T22:48:08.206Z,4.00
2022-12-28T22:50:41.461Z,4.00
2022-12-28T22:53:11.174Z,4.00
2022-12-28T22:55:38.395Z,4.00
2022-12-28T22:58:05.894Z,3.90
2022-12-28T23:00:33.112Z,3.90
2022-12-28T23:03:00.284Z,3.90
2022-12-28T23:05:27.582Z,3.80
2022-12-28T23:07:55.241Z,3.80
2022-12-28T23:10:22.429Z,3.70
2022-12-28T23:12:49.544Z,3.70
2022-12-28T23:15:19.062Z,3.70
2022-12-28T23:17:48.874Z,3.80
2022-12-28T23:20:34.809Z,3.80
2022-12-28T23:23:20.326Z,3.80
2022-12-28T23:26:06.548Z,3.80
2022-12-28T23:28:36.312Z,3.90
2022-12-28T23:31:03.879Z,3.90
2022-12-28T23:33:31.701Z,4.00
2022-12-28T23:36:03.093Z,4.00
2022-12-28T23:38:35.034Z,4.10
2022-12-28T23:41:25.085Z,4.10
2022-12-28T23:43:52.339Z,4.10
2022-12-28T23:46:19.671Z,4.10
2022-12-28T23:48:46.939Z,4.10
2022-12-28T23:51:14.098Z,4.10
2022-12-28T23:53:41.260Z,4.10
2022-12-28T23:56:08.613Z,4.10
2022-12-28T23:58:35.763Z,4.10
